createdAt,value
2022-11-30T00:00:15.455Z,1017.69
2022-11-30T00:01:15.444Z,1017.73
2022-11-30T00:02:14.918Z,1017.72
2022-11-30T00:03:15.199Z,1017.71
2022-11-30T00:04:14.736Z,1017.70
2022-11-30T00:05:15.649Z,1017.73
2022-11-30T00:06:16.137Z,1017.76
2022-11-30T00:07:15.650Z,1017.72
2022-11-30T00:08:15.353Z,1017.74
2022-11-30T00:09:14.712Z,1017.76
2022-11-30T00:10:15.353Z,1017.77
2022-11-30T00:11:15.335Z,1017.78
2022-11-30T00:12:15.327Z,1017.75
2022-11-30T00:13:15.314Z,1017.78
2022-11-30T00:14:14.730Z,1017.75
2022-11-30T00:15:14.636Z,1017.78
2022-11-30T00:16:15.310Z,1017.78
2022-11-30T00:17:15.270Z,1017.75
2022-11-30T00:18:14.581Z,1017.76
2022-11-30T00:19:14.580Z,1017.78
2022-11-30T00:20:14.669Z,1017.76
2022-11-30T00:21:15.232Z,1017.72
2022-11-30T00:22:14.550Z,1017.71
2022-11-30T00:23:15.223Z,1017.69
2022-11-30T00:24:15.205Z,1017.69
2022-11-30T00:25:15.191Z,1017.70
2022-11-30T00:26:15.169Z,1017.70
2022-11-30T00:27:16.420Z,1017.68
2022-11-30T00:28:15.181Z,1017.68
2022-11-30T00:29:14.462Z,1017.68
2022-11-30T00:30:14.492Z,1017.66
2022-11-30T00:31:15.197Z,1017.67
2022-11-30T00:32:15.273Z,1017.63
2022-11-30T00:33:15.102Z,1017.64
2022-11-30T00:34:14.412Z,1017.64
2022-11-30T00:35:15.083Z,1017.65
2022-11-30T00:36:15.071Z,1017.67
2022-11-30T00:37:14.382Z,1017.63
2022-11-30T00:38:15.051Z,1017.62
2022-11-30T00:39:15.045Z,1017.59
2022-11-30T00:40:15.031Z,1017.58
2022-11-30T00:41:15.012Z,1017.60
2022-11-30T00:42:16.273Z,1017.59
2022-11-30T00:43:14.313Z,1017.57
2022-11-30T00:44:14.413Z,1017.57
2022-11-30T00:45:14.984Z,1017.55
2022-11-30T00:46:14.309Z,1017.54
2022-11-30T00:47:14.274Z,1017.53
2022-11-30T00:48:14.934Z,1017.52
2022-11-30T00:49:14.924Z,1017.55
2022-11-30T00:50:15.005Z,1017.54
2022-11-30T00:51:14.908Z,1017.54
2022-11-30T00:52:14.895Z,1017.51
2022-11-30T00:53:14.207Z,1017.51
2022-11-30T00:54:14.875Z,1017.55
2022-11-30T00:55:14.865Z,1017.51
2022-11-30T00:56:14.216Z,1017.53
2022-11-30T00:57:16.121Z,1017.52
2022-11-30T00:58:14.826Z,1017.50
2022-11-30T00:59:14.167Z,1017.51
2022-11-30T01:00:14.818Z,1017.54
2022-11-30T01:01:14.934Z,1017.54
2022-11-30T01:02:14.377Z,1017.48
2022-11-30T01:03:14.647Z,1017.50
2022-11-30T01:04:14.113Z,1017.50
2022-11-30T01:05:14.757Z,1017.52
2022-11-30T01:06:14.166Z,1017.53
2022-11-30T01:07:15.039Z,1017.51
2022-11-30T01:08:14.720Z,1017.54
2022-11-30T01:09:15.056Z,1017.53
2022-11-30T01:10:15.479Z,1017.49
2022-11-30T01:11:14.996Z,1017.55
2022-11-30T01:12:14.983Z,1017.54
2022-11-30T01:13:14.700Z,1017.53
2022-11-30T01:14:14.079Z,1017.53
2022-11-30T01:15:14.890Z,1017.55
2022-11-30T01:16:15.007Z,1017.60
2022-11-30T01:17:14.902Z,1017.60
2022-11-30T01:18:13.951Z,1017.63
2022-11-30T01:19:14.604Z,1017.65
2022-11-30T01:20:14.661Z,1017.68
2022-11-30T01:21:13.933Z,1017.68
2022-11-30T01:22:14.579Z,1017.66
2022-11-30T01:23:14.567Z,1017.70
2022-11-30T01:24:14.831Z,1017.71
2022-11-30T01:25:14.830Z,1017.73
2022-11-30T01:26:14.525Z,1017.71
2022-11-30T01:27:14.512Z,1017.75
2022-11-30T01:28:14.765Z,1017.77
2022-11-30T01:29:14.792Z,1017.73
2022-11-30T01:30:14.491Z,1017.77
2022-11-30T01:31:14.540Z,1017.77
2022-11-30T01:32:14.462Z,1017.79
2022-11-30T01:33:13.785Z,1017.77
2022-11-30T01:34:14.441Z,1017.72
2022-11-30T01:35:14.431Z,1017.77
2022-11-30T01:36:14.722Z,1017.73
2022-11-30T01:37:14.403Z,1017.76
2022-11-30T01:38:14.487Z,1017.73
2022-11-30T01:39:14.383Z,1017.74
2022-11-30T01:40:14.643Z,1017.71
2022-11-30T01:41:15.533Z,1017.70
2022-11-30T01:42:14.353Z,1017.67
2022-11-30T01:43:14.353Z,1017.73
2022-11-30T01:44:18.238Z,1017.73
2022-11-30T01:45:14.644Z,1017.67
2022-11-30T01:46:14.627Z,1017.69
2022-11-30T01:47:14.305Z,1017.69
2022-11-30T01:48:14.286Z,1017.72
2022-11-30T01:49:14.306Z,1017.70
2022-11-30T01:50:14.640Z,1017.72
2022-11-30T01:51:14.275Z,1017.72
2022-11-30T01:52:14.252Z,1017.75
2022-11-30T01:53:14.556Z,1017.74
2022-11-30T01:54:14.525Z,1017.69
2022-11-30T01:55:14.485Z,1017.70
2022-11-30T01:56:14.567Z,1017.68
2022-11-30T01:57:14.946Z,1017.70
2022-11-30T01:58:14.458Z,1017.67
2022-11-30T01:59:14.180Z,1017.66
2022-11-30T02:00:14.172Z,1017.71
2022-11-30T02:01:14.203Z,1017.67
2022-11-30T02:02:14.476Z,1017.66
2022-11-30T02:03:14.124Z,1017.68
2022-11-30T02:04:14.121Z,1017.67
2022-11-30T02:05:13.457Z,1017.71
2022-11-30T02:06:13.454Z,1017.75
2022-11-30T02:07:13.445Z,1017.76
2022-11-30T02:08:14.252Z,1017.75
2022-11-30T02:09:14.070Z,1017.68
2022-11-30T02:10:13.423Z,1017.66
2022-11-30T02:11:14.324Z,1017.67
2022-11-30T02:12:14.029Z,1017.67
2022-11-30T02:13:14.304Z,1017.67
2022-11-30T02:14:13.999Z,1017.69
2022-11-30T02:15:14.340Z,1017.65
2022-11-30T02:16:14.047Z,1017.69
2022-11-30T02:17:14.306Z,1017.66
2022-11-30T02:18:14.300Z,1017.66
2022-11-30T02:19:14.232Z,1017.68
2022-11-30T02:20:14.231Z,1017.63
2022-11-30T02:21:14.184Z,1017.62
2022-11-30T02:22:14.161Z,1017.70
2022-11-30T02:23:14.202Z,1017.68
2022-11-30T02:24:14.142Z,1017.70
2022-11-30T02:25:13.892Z,1017.69
2022-11-30T02:26:14.176Z,1017.73
2022-11-30T02:27:13.876Z,1017.72
2022-11-30T02:28:13.890Z,1017.74
2022-11-30T02:29:13.851Z,1017.74
2022-11-30T02:30:13.842Z,1017.71
2022-11-30T02:31:13.233Z,1017.71
2022-11-30T02:32:14.213Z,1017.71
2022-11-30T02:33:13.806Z,1017.69
2022-11-30T02:34:15.749Z,1017.73
2022-11-30T02:35:14.068Z,1017.74
2022-11-30T02:36:14.034Z,1017.69
2022-11-30T02:37:13.764Z,1017.68
2022-11-30T02:38:13.198Z,1017.68
2022-11-30T02:39:13.735Z,1017.68
2022-11-30T02:40:13.746Z,1017.72
2022-11-30T02:41:13.989Z,1017.70
2022-11-30T02:42:14.036Z,1017.74
2022-11-30T02:43:14.493Z,1017.73
2022-11-30T02:44:13.296Z,1017.74
2022-11-30T02:45:13.698Z,1017.74
2022-11-30T02:46:13.698Z,1017.78
2022-11-30T02:47:13.939Z,1017.76
2022-11-30T02:48:13.637Z,1017.73
2022-11-30T02:49:13.941Z,1017.78
2022-11-30T02:50:13.909Z,1017.76
2022-11-30T02:51:13.887Z,1017.73
2022-11-30T02:52:13.599Z,1017.73
2022-11-30T02:53:13.591Z,1017.77
2022-11-30T02:54:13.576Z,1017.79
2022-11-30T02:55:13.850Z,1017.80
2022-11-30T02:56:13.844Z,1017.82
2022-11-30T02:57:14.312Z,1017.80
2022-11-30T02:58:13.808Z,1017.84
2022-11-30T02:59:13.789Z,1017.80
2022-11-30T03:00:13.770Z,1017.87
2022-11-30T03:01:13.833Z,1017.88
2022-11-30T03:02:13.881Z,1017.90
2022-11-30T03:03:13.486Z,1017.89
2022-11-30T03:04:13.747Z,1017.91
2022-11-30T03:05:13.463Z,1017.91
2022-11-30T03:06:13.442Z,1017.90
2022-11-30T03:07:13.701Z,1017.86
2022-11-30T03:08:13.740Z,1017.90
2022-11-30T03:09:13.681Z,1017.92
2022-11-30T03:10:13.402Z,1017.94
2022-11-30T03:11:13.673Z,1017.93
2022-11-30T03:12:13.642Z,1017.90
2022-11-30T03:13:13.644Z,1017.93
2022-11-30T03:14:13.341Z,1017.91
2022-11-30T03:15:15.362Z,1017.92
2022-11-30T03:16:13.389Z,1017.95
2022-11-30T03:17:13.567Z,1017.96
2022-11-30T03:18:13.321Z,1017.98
2022-11-30T03:19:12.642Z,1017.92
2022-11-30T03:20:13.302Z,1017.94
2022-11-30T03:21:12.753Z,1017.96
2022-11-30T03:22:13.533Z,1017.98
2022-11-30T03:23:13.264Z,1017.97
2022-11-30T03:24:13.262Z,1017.99
2022-11-30T03:25:13.243Z,1018.00
2022-11-30T03:26:13.301Z,1017.96
2022-11-30T03:27:13.228Z,1017.97
2022-11-30T03:28:13.206Z,1018.00
2022-11-30T03:29:13.203Z,1017.97
2022-11-30T03:30:13.184Z,1017.94
2022-11-30T03:31:13.563Z,1017.98
2022-11-30T03:32:13.237Z,1017.95
2022-11-30T03:33:12.495Z,1017.99
2022-11-30T03:34:13.145Z,1018.08
2022-11-30T03:35:14.407Z,1018.04
2022-11-30T03:36:13.130Z,1018.05
2022-11-30T03:37:12.924Z,1018.06
2022-11-30T03:38:13.400Z,1018.05
2022-11-30T03:39:13.850Z,1018.07
2022-11-30T03:40:13.078Z,1018.00
2022-11-30T03:41:13.079Z,1017.98
2022-11-30T03:42:12.379Z,1017.97
2022-11-30T03:43:12.378Z,1017.97
2022-11-30T03:44:12.389Z,1017.93
2022-11-30T03:45:13.027Z,1017.92
2022-11-30T03:46:12.383Z,1017.96
2022-11-30T03:47:13.016Z,1017.94
2022-11-30T03:48:12.325Z,1017.96
2022-11-30T03:49:12.307Z,1017.92
2022-11-30T03:50:12.349Z,1017.97
2022-11-30T03:51:12.290Z,1017.97
2022-11-30T03:52:12.961Z,1018.06
2022-11-30T03:53:12.952Z,1018.07
2022-11-30T03:54:12.948Z,1018.05
2022-11-30T03:55:12.249Z,1018.01
2022-11-30T03:56:13.224Z,1018.07
2022-11-30T03:57:14.159Z,1018.08
2022-11-30T03:58:12.221Z,1018.06
2022-11-30T03:59:13.149Z,1018.09
2022-11-30T04:00:12.201Z,1018.10
2022-11-30T04:01:12.182Z,1018.09
2022-11-30T04:02:14.246Z,1018.07
2022-11-30T04:03:12.929Z,1018.04
2022-11-30T04:04:14.104Z,1018.09
2022-11-30T04:05:12.131Z,1018.05
2022-11-30T04:06:14.084Z,1018.05
2022-11-30T04:07:14.111Z,1018.05
2022-11-30T04:08:13.086Z,1018.04
2022-11-30T04:09:12.773Z,1018.02
2022-11-30T04:10:12.769Z,1018.02
2022-11-30T04:11:12.762Z,1018.02
2022-11-30T04:12:12.073Z,1017.99
2022-11-30T04:13:14.012Z,1018.02
2022-11-30T04:14:12.083Z,1018.02
2022-11-30T04:15:13.473Z,1018.04
2022-11-30T04:16:12.770Z,1018.04
2022-11-30T04:17:12.858Z,1018.07
2022-11-30T04:18:13.984Z,1018.02
2022-11-30T04:19:12.915Z,1018.03
2022-11-30T04:20:12.648Z,1018.06
2022-11-30T04:21:12.658Z,1018.03
2022-11-30T04:22:13.640Z,1018.10
2022-11-30T04:23:11.967Z,1018.07
2022-11-30T04:24:14.031Z,1018.08
2022-11-30T04:25:13.466Z,1018.06
2022-11-30T04:26:12.919Z,1018.03
2022-11-30T04:27:13.846Z,1018.06
2022-11-30T04:28:12.836Z,1018.05
2022-11-30T04:29:13.837Z,1018.11
2022-11-30T04:30:11.883Z,1018.08
2022-11-30T04:31:12.878Z,1018.01
2022-11-30T04:32:12.926Z,1018.06
2022-11-30T04:33:12.539Z,1018.00
2022-11-30T04:34:13.793Z,1018.04
2022-11-30T04:35:12.777Z,1018.05
2022-11-30T04:36:12.738Z,1018.04
2022-11-30T04:37:12.729Z,1018.00
2022-11-30T04:38:13.039Z,1017.96
2022-11-30T04:39:13.734Z,1017.98
2022-11-30T04:40:12.701Z,1017.95
2022-11-30T04:41:12.689Z,1017.94
2022-11-30T04:42:13.687Z,1017.91
2022-11-30T04:43:13.697Z,1017.93
2022-11-30T04:44:13.677Z,1017.93
2022-11-30T04:45:13.667Z,1017.93
2022-11-30T04:46:13.720Z,1017.91
2022-11-30T04:47:13.640Z,1017.93
2022-11-30T04:48:13.628Z,1017.90
2022-11-30T04:49:13.651Z,1017.93
2022-11-30T04:50:13.625Z,1017.90
2022-11-30T04:51:13.609Z,1017.91
2022-11-30T04:52:13.588Z,1017.95
2022-11-30T04:53:12.551Z,1017.97
2022-11-30T04:54:12.551Z,1017.99
2022-11-30T04:55:13.610Z,1017.98
2022-11-30T04:56:12.520Z,1018.02
2022-11-30T04:57:12.522Z,1018.00
2022-11-30T04:58:13.002Z,1018.05
2022-11-30T04:59:12.333Z,1018.08
2022-11-30T05:00:11.848Z,1018.04
2022-11-30T05:01:12.638Z,1018.05
2022-11-30T05:02:13.140Z,1018.01
2022-11-30T05:03:13.473Z,1018.01
2022-11-30T05:04:13.505Z,1018.04
2022-11-30T05:05:13.453Z,1018.01
2022-11-30T05:06:13.421Z,1018.01
2022-11-30T05:07:13.454Z,1018.01
2022-11-30T05:08:13.412Z,1017.97
2022-11-30T05:09:13.401Z,1018.02
2022-11-30T05:10:12.362Z,1018.04
2022-11-30T05:11:13.373Z,1018.01
2022-11-30T05:12:12.113Z,1018.03
2022-11-30T05:13:12.482Z,1018.06
2022-11-30T05:14:13.345Z,1018.07
2022-11-30T05:15:13.343Z,1018.06
2022-11-30T05:16:12.863Z,1018.13
2022-11-30T05:17:13.314Z,1018.12
2022-11-30T05:18:12.043Z,1018.11
2022-11-30T05:19:13.425Z,1018.12
2022-11-30T05:20:12.031Z,1018.12
2022-11-30T05:21:13.784Z,1018.20
2022-11-30T05:22:11.997Z,1018.15
2022-11-30T05:23:13.274Z,1018.16
2022-11-30T05:24:13.294Z,1018.17
2022-11-30T05:25:11.963Z,1018.15
2022-11-30T05:26:12.217Z,1018.17
2022-11-30T05:27:16.640Z,1018.15
2022-11-30T05:28:12.936Z,1018.09
2022-11-30T05:29:13.236Z,1018.15
2022-11-30T05:30:12.176Z,1018.11
2022-11-30T05:31:11.959Z,1018.12
2022-11-30T05:32:11.900Z,1018.13
2022-11-30T05:33:13.156Z,1018.21
2022-11-30T05:34:11.876Z,1018.18
2022-11-30T05:35:13.132Z,1018.20
2022-11-30T05:36:13.119Z,1018.23
2022-11-30T05:37:13.248Z,1018.24
2022-11-30T05:38:13.108Z,1018.24
2022-11-30T05:39:13.121Z,1018.23
2022-11-30T05:40:13.098Z,1018.22
2022-11-30T05:41:12.048Z,1018.28
2022-11-30T05:42:12.063Z,1018.28
2022-11-30T05:43:12.172Z,1018.26
2022-11-30T05:44:11.769Z,1018.27
2022-11-30T05:45:13.059Z,1018.26
2022-11-30T05:46:11.761Z,1018.30
2022-11-30T05:47:13.115Z,1018.30
2022-11-30T05:48:13.013Z,1018.35
2022-11-30T05:49:13.033Z,1018.34
2022-11-30T05:50:12.999Z,1018.36
2022-11-30T05:51:11.701Z,1018.33
2022-11-30T05:52:12.991Z,1018.39
2022-11-30T05:53:13.000Z,1018.37
2022-11-30T05:54:11.926Z,1018.39
2022-11-30T05:55:11.663Z,1018.38
2022-11-30T05:56:12.931Z,1018.38
2022-11-30T05:57:12.400Z,1018.39
2022-11-30T05:58:12.381Z,1018.40
2022-11-30T05:59:11.862Z,1018.41
2022-11-30T06:00:11.864Z,1018.44
2022-11-30T06:01:12.901Z,1018.45
2022-11-30T06:02:11.305Z,1018.43
2022-11-30T06:03:12.898Z,1018.48
2022-11-30T06:04:12.844Z,1018.49
2022-11-30T06:05:11.811Z,1018.50
2022-11-30T06:06:11.532Z,1018.49
2022-11-30T06:07:12.841Z,1018.49
2022-11-30T06:08:12.773Z,1018.53
2022-11-30T06:09:11.755Z,1018.54
2022-11-30T06:10:12.805Z,1018.58
2022-11-30T06:11:10.863Z,1018.55
2022-11-30T06:12:11.804Z,1018.58
2022-11-30T06:13:11.804Z,1018.59
2022-11-30T06:14:11.453Z,1018.62
2022-11-30T06:15:11.445Z,1018.63
2022-11-30T06:16:11.486Z,1018.60
2022-11-30T06:17:12.691Z,1018.61
2022-11-30T06:18:11.686Z,1018.62
2022-11-30T06:19:12.695Z,1018.62
2022-11-30T06:20:12.656Z,1018.67
2022-11-30T06:21:11.386Z,1018.67
2022-11-30T06:22:11.641Z,1018.66
2022-11-30T06:23:11.366Z,1018.68
2022-11-30T06:24:11.617Z,1018.71
2022-11-30T06:25:11.326Z,1018.66
2022-11-30T06:26:11.625Z,1018.70
2022-11-30T06:27:11.577Z,1018.66
2022-11-30T06:28:11.307Z,1018.69
2022-11-30T06:29:11.286Z,1018.69
2022-11-30T06:30:11.526Z,1018.67
2022-11-30T06:31:11.594Z,1018.72
2022-11-30T06:32:11.547Z,1018.66
2022-11-30T06:33:11.261Z,1018.68
2022-11-30T06:34:11.488Z,1018.66
2022-11-30T06:35:11.489Z,1018.72
2022-11-30T06:36:11.189Z,1018.71
2022-11-30T06:37:11.479Z,1018.70
2022-11-30T06:38:11.188Z,1018.70
2022-11-30T06:39:11.449Z,1018.72
2022-11-30T06:40:11.428Z,1018.71
2022-11-30T06:41:11.161Z,1018.70
2022-11-30T06:42:11.150Z,1018.72
2022-11-30T06:43:10.470Z,1018.74
2022-11-30T06:44:11.131Z,1018.77
2022-11-30T06:45:11.390Z,1018.77
2022-11-30T06:46:11.496Z,1018.75
2022-11-30T06:47:11.171Z,1018.79
2022-11-30T06:48:11.094Z,1018.78
2022-11-30T06:49:11.349Z,1018.78
2022-11-30T06:50:11.073Z,1018.77
2022-11-30T06:51:11.063Z,1018.74
2022-11-30T06:52:11.306Z,1018.75
2022-11-30T06:53:11.402Z,1018.76
2022-11-30T06:54:11.021Z,1018.80
2022-11-30T06:55:11.017Z,1018.74
2022-11-30T06:56:11.145Z,1018.75
2022-11-30T06:57:11.000Z,1018.77
2022-11-30T06:58:10.981Z,1018.78
2022-11-30T06:59:11.842Z,1018.80
2022-11-30T07:00:10.285Z,1018.79
2022-11-30T07:01:11.051Z,1018.79
2022-11-30T07:02:17.228Z,1018.76
2022-11-30T07:03:12.723Z,1018.75
2022-11-30T07:04:10.976Z,1018.80
2022-11-30T07:05:11.785Z,1018.77
2022-11-30T07:06:11.175Z,1018.78
2022-11-30T07:07:10.887Z,1018.81
2022-11-30T07:08:11.636Z,1018.80
2022-11-30T07:09:10.204Z,1018.82
2022-11-30T07:10:13.758Z,1018.84
2022-11-30T07:11:10.845Z,1018.88
2022-11-30T07:12:10.186Z,1018.82
2022-11-30T07:13:10.973Z,1018.84
2022-11-30T07:14:11.071Z,1018.88
2022-11-30T07:15:10.816Z,1018.88
2022-11-30T07:16:10.216Z,1018.96
2022-11-30T07:17:11.135Z,1018.88
2022-11-30T07:18:10.765Z,1018.90
2022-11-30T07:19:11.047Z,1018.90
2022-11-30T07:20:10.746Z,1018.86
2022-11-30T07:21:10.736Z,1018.90
2022-11-30T07:22:10.735Z,1018.92
2022-11-30T07:23:10.722Z,1018.94
2022-11-30T07:24:10.707Z,1018.95
2022-11-30T07:25:10.039Z,1018.99
2022-11-30T07:26:10.688Z,1018.97
2022-11-30T07:27:10.676Z,1019.02
2022-11-30T07:28:10.668Z,1019.05
2022-11-30T07:29:10.032Z,1019.01
2022-11-30T07:30:10.673Z,1019.02
2022-11-30T07:31:14.809Z,1019.08
2022-11-30T07:32:11.931Z,1019.04
2022-11-30T07:33:10.610Z,1019.02
2022-11-30T07:34:10.591Z,1019.03
2022-11-30T07:35:10.589Z,1019.00
2022-11-30T07:36:10.578Z,1019.06
2022-11-30T07:37:10.577Z,1019.02
2022-11-30T07:38:10.561Z,1019.03
2022-11-30T07:39:10.564Z,1019.03
2022-11-30T07:40:10.530Z,1019.03
2022-11-30T07:41:10.591Z,1019.08
2022-11-30T07:42:10.510Z,1019.10
2022-11-30T07:43:10.500Z,1019.12
2022-11-30T07:44:10.486Z,1019.07
2022-11-30T07:45:11.262Z,1019.12
2022-11-30T07:46:09.814Z,1019.15
2022-11-30T07:47:10.550Z,1019.22
2022-11-30T07:48:10.463Z,1019.15
2022-11-30T07:49:09.791Z,1019.20
2022-11-30T07:50:10.430Z,1019.21
2022-11-30T07:51:10.422Z,1019.21
2022-11-30T07:52:10.403Z,1019.21
2022-11-30T07:53:10.402Z,1019.24
2022-11-30T07:54:09.722Z,1019.24
2022-11-30T07:55:10.701Z,1019.23
2022-11-30T07:56:10.356Z,1019.22
2022-11-30T07:57:10.352Z,1019.21
2022-11-30T07:58:14.189Z,1019.23
2022-11-30T07:59:12.133Z,1019.27
2022-11-30T08:00:10.322Z,1019.28
2022-11-30T08:01:10.694Z,1019.22
2022-11-30T08:02:12.052Z,1019.24
2022-11-30T08:03:09.624Z,1019.31
2022-11-30T08:04:09.623Z,1019.33
2022-11-30T08:05:09.655Z,1019.30
2022-11-30T08:06:10.262Z,1019.34
2022-11-30T08:07:10.247Z,1019.37
2022-11-30T08:08:10.225Z,1019.36
2022-11-30T08:09:10.216Z,1019.36
2022-11-30T08:10:09.526Z,1019.34
2022-11-30T08:11:10.677Z,1019.38
2022-11-30T08:12:09.584Z,1019.43
2022-11-30T08:13:10.186Z,1019.38
2022-11-30T08:14:09.504Z,1019.40
2022-11-30T08:15:19.789Z,1019.39
2022-11-30T08:16:11.608Z,1019.45
2022-11-30T08:17:10.185Z,1019.45
2022-11-30T08:18:09.460Z,1019.45
2022-11-30T08:19:10.109Z,1019.45
2022-11-30T08:20:10.097Z,1019.47
2022-11-30T08:21:09.420Z,1019.47
2022-11-30T08:22:10.057Z,1019.47
2022-11-30T08:23:10.077Z,1019.51
2022-11-30T08:24:09.417Z,1019.52
2022-11-30T08:25:10.050Z,1019.50
2022-11-30T08:26:09.369Z,1019.50
2022-11-30T08:27:09.358Z,1019.50
2022-11-30T08:28:10.789Z,1019.49
2022-11-30T08:29:09.999Z,1019.49
2022-11-30T08:30:10.000Z,1019.51
2022-11-30T08:31:10.020Z,1019.50
2022-11-30T08:32:09.979Z,1019.51
2022-11-30T08:33:09.307Z,1019.51
2022-11-30T08:34:09.308Z,1019.52
2022-11-30T08:35:09.300Z,1019.53
2022-11-30T08:36:09.270Z,1019.56
2022-11-30T08:37:09.921Z,1019.63
2022-11-30T08:38:10.199Z,1019.59
2022-11-30T08:39:09.240Z,1019.60
2022-11-30T08:40:09.890Z,1019.62
2022-11-30T08:41:09.882Z,1019.64
2022-11-30T08:42:09.201Z,1019.63
2022-11-30T08:43:09.860Z,1019.67
2022-11-30T08:44:09.851Z,1019.64
2022-11-30T08:45:09.171Z,1019.68
2022-11-30T08:46:34.767Z,1019.68
2022-11-30T08:47:11.586Z,1019.70
2022-11-30T08:48:09.802Z,1019.74
2022-11-30T08:49:25.600Z,1019.73
2022-11-30T08:50:10.120Z,1019.74
2022-11-30T08:51:09.773Z,1019.72
2022-11-30T08:52:18.236Z,1019.77
2022-11-30T08:53:10.072Z,1019.75
2022-11-30T08:54:10.492Z,1019.75
2022-11-30T08:55:09.723Z,1019.73
2022-11-30T08:56:09.070Z,1019.78
2022-11-30T08:57:09.043Z,1019.81
2022-11-30T08:58:09.695Z,1019.80
2022-11-30T08:59:09.034Z,1019.82
2022-11-30T09:00:09.677Z,1019.81
2022-11-30T09:01:09.016Z,1019.82
2022-11-30T09:02:09.036Z,1019.84
2022-11-30T09:03:09.014Z,1019.83
2022-11-30T09:04:09.015Z,1019.85
2022-11-30T09:05:09.887Z,1019.84
2022-11-30T09:06:09.605Z,1019.87
2022-11-30T09:07:09.655Z,1019.84
2022-11-30T09:08:08.961Z,1019.85
2022-11-30T09:09:08.905Z,1019.82
2022-11-30T09:10:09.646Z,1019.82
2022-11-30T09:11:09.555Z,1019.88
2022-11-30T09:12:09.557Z,1019.84
2022-11-30T09:13:09.537Z,1019.85
2022-11-30T09:14:08.869Z,1019.88
2022-11-30T09:15:09.517Z,1019.91
2022-11-30T09:16:08.874Z,1019.93
2022-11-30T09:17:08.822Z,1019.96
2022-11-30T09:18:09.485Z,1019.93
2022-11-30T09:19:08.807Z,1019.94
2022-11-30T09:20:09.459Z,1019.97
2022-11-30T09:21:08.778Z,1019.96
2022-11-30T09:22:09.527Z,1019.94
2022-11-30T09:23:09.438Z,1019.96
2022-11-30T09:24:09.455Z,1019.98
2022-11-30T09:25:08.729Z,1019.97
2022-11-30T09:26:08.740Z,1019.98
2022-11-30T09:27:08.730Z,1019.98
2022-11-30T09:28:12.299Z,1020.00
2022-11-30T09:29:10.123Z,1020.03
2022-11-30T09:30:09.362Z,1020.05
2022-11-30T09:31:08.705Z,1019.97
2022-11-30T09:32:08.679Z,1019.97
2022-11-30T09:33:08.655Z,1020.00
2022-11-30T09:34:08.776Z,1019.99
2022-11-30T09:35:12.596Z,1020.01
2022-11-30T09:36:09.293Z,1020.01
2022-11-30T09:37:08.611Z,1019.98
2022-11-30T09:38:09.571Z,1020.00
2022-11-30T09:39:09.271Z,1020.00
2022-11-30T09:40:08.635Z,1019.97
2022-11-30T09:41:08.572Z,1020.02
2022-11-30T09:42:09.235Z,1020.00
2022-11-30T09:43:08.548Z,1020.01
2022-11-30T09:44:08.590Z,1020.01
2022-11-30T09:45:09.204Z,1020.03
2022-11-30T09:46:09.266Z,1019.95
2022-11-30T09:47:08.505Z,1019.99
2022-11-30T09:48:08.492Z,1019.99
2022-11-30T09:49:08.506Z,1019.97
2022-11-30T09:50:08.475Z,1019.93
2022-11-30T09:51:09.405Z,1019.96
2022-11-30T09:52:09.184Z,1019.97
2022-11-30T09:53:08.445Z,1019.98
2022-11-30T09:54:08.435Z,1019.98
2022-11-30T09:55:08.437Z,1019.99
2022-11-30T09:56:09.083Z,1020.04
2022-11-30T09:57:09.074Z,1020.01
2022-11-30T09:58:09.359Z,1020.02
2022-11-30T09:59:09.049Z,1019.97
2022-11-30T10:00:09.316Z,1019.97
2022-11-30T10:01:09.086Z,1019.95
2022-11-30T10:02:09.099Z,1019.98
2022-11-30T10:03:09.064Z,1019.97
2022-11-30T10:04:08.986Z,1019.95
2022-11-30T10:05:08.995Z,1019.94
2022-11-30T10:06:08.350Z,1019.92
2022-11-30T10:07:09.231Z,1019.90
2022-11-30T10:08:08.975Z,1019.89
2022-11-30T10:09:08.937Z,1019.88
2022-11-30T10:10:30.984Z,1019.87
2022-11-30T10:11:10.131Z,1019.88
2022-11-30T10:12:08.237Z,1019.89
2022-11-30T10:13:09.221Z,1019.89
2022-11-30T10:14:09.139Z,1019.81
2022-11-30T10:15:08.878Z,1019.80
2022-11-30T10:16:09.016Z,1019.86
2022-11-30T10:17:09.121Z,1019.89
2022-11-30T10:18:08.852Z,1019.88
2022-11-30T10:19:09.100Z,1019.85
2022-11-30T10:20:08.829Z,1019.83
2022-11-30T10:21:09.071Z,1019.83
2022-11-30T10:22:08.812Z,1019.84
2022-11-30T10:23:08.802Z,1019.82
2022-11-30T10:24:09.050Z,1019.82
2022-11-30T10:25:12.033Z,1019.79
2022-11-30T10:26:08.761Z,1019.79
2022-11-30T10:27:08.751Z,1019.79
2022-11-30T10:28:38.593Z,1019.81
2022-11-30T10:29:09.973Z,1019.81
2022-11-30T10:30:08.733Z,1019.80
2022-11-30T10:31:09.008Z,1019.80
2022-11-30T10:32:08.943Z,1019.80
2022-11-30T10:33:08.935Z,1019.78
2022-11-30T10:34:08.942Z,1019.80
2022-11-30T10:35:08.671Z,1019.80
2022-11-30T10:36:08.652Z,1019.81
2022-11-30T10:37:08.643Z,1019.77
2022-11-30T10:38:08.911Z,1019.74
2022-11-30T10:39:14.191Z,1019.79
2022-11-30T10:40:09.054Z,1019.75
2022-11-30T10:41:08.605Z,1019.81
2022-11-30T10:42:08.846Z,1019.74
2022-11-30T10:43:08.582Z,1019.81
2022-11-30T10:44:08.573Z,1019.75
2022-11-30T10:45:08.574Z,1019.78
2022-11-30T10:46:11.343Z,1019.72
2022-11-30T10:47:09.534Z,1019.78
2022-11-30T10:48:08.777Z,1019.76
2022-11-30T10:49:08.766Z,1019.77
2022-11-30T10:50:08.775Z,1019.76
2022-11-30T10:51:08.749Z,1019.80
2022-11-30T10:52:08.484Z,1019.79
2022-11-30T10:53:08.716Z,1019.79
2022-11-30T10:54:08.477Z,1019.80
2022-11-30T10:55:08.727Z,1019.74
2022-11-30T10:56:08.685Z,1019.80
2022-11-30T10:57:08.435Z,1019.77
2022-11-30T10:58:08.416Z,1019.74
2022-11-30T10:59:07.736Z,1019.73
2022-11-30T11:00:08.407Z,1019.73
2022-11-30T11:01:08.433Z,1019.78
2022-11-30T11:02:07.756Z,1019.74
2022-11-30T11:03:07.759Z,1019.76
2022-11-30T11:04:08.451Z,1019.79
2022-11-30T11:05:08.357Z,1019.78
2022-11-30T11:06:07.677Z,1019.76
2022-11-30T11:07:07.782Z,1019.75
2022-11-30T11:08:07.808Z,1019.83
2022-11-30T11:09:08.306Z,1019.78
2022-11-30T11:10:08.281Z,1019.78
2022-11-30T11:11:07.639Z,1019.79
2022-11-30T11:12:08.519Z,1019.80
2022-11-30T11:13:08.499Z,1019.79
2022-11-30T11:14:08.553Z,1019.79
2022-11-30T11:15:08.499Z,1019.81
2022-11-30T11:16:08.560Z,1019.83
2022-11-30T11:17:07.551Z,1019.78
2022-11-30T11:18:08.482Z,1019.77
2022-11-30T11:19:08.194Z,1019.84
2022-11-30T11:20:08.451Z,1019.84
2022-11-30T11:21:07.529Z,1019.79
2022-11-30T11:22:08.249Z,1019.83
2022-11-30T11:23:08.170Z,1019.82
2022-11-30T11:24:08.406Z,1019.87
2022-11-30T11:25:08.400Z,1019.85
2022-11-30T11:26:08.124Z,1019.86
2022-11-30T11:27:08.112Z,1019.80
2022-11-30T11:28:08.103Z,1019.90
2022-11-30T11:29:08.102Z,1019.87
2022-11-30T11:30:08.084Z,1019.85
2022-11-30T11:31:07.577Z,1019.90
2022-11-30T11:32:08.324Z,1019.88
2022-11-30T11:33:07.393Z,1019.91
2022-11-30T11:34:08.022Z,1019.91
2022-11-30T11:35:08.037Z,1019.94
2022-11-30T11:36:08.267Z,1019.92
2022-11-30T11:37:08.254Z,1019.92
2022-11-30T11:38:08.356Z,1019.88
2022-11-30T11:39:07.985Z,1019.87
2022-11-30T11:40:07.986Z,1019.87
2022-11-30T11:41:08.213Z,1019.92
2022-11-30T11:42:07.956Z,1019.88
2022-11-30T11:43:08.194Z,1019.92
2022-11-30T11:44:07.933Z,1019.94
2022-11-30T11:45:07.935Z,1019.90
2022-11-30T11:46:08.614Z,1019.93
2022-11-30T11:47:07.915Z,1019.94
2022-11-30T11:48:07.896Z,1019.91
2022-11-30T11:49:07.879Z,1019.91
2022-11-30T11:50:08.128Z,1019.95
2022-11-30T11:51:08.563Z,1019.94
2022-11-30T11:52:07.295Z,1019.97
2022-11-30T11:53:07.894Z,1019.98
2022-11-30T11:54:08.172Z,1020.01
2022-11-30T11:55:08.075Z,1020.00
2022-11-30T11:56:07.809Z,1020.00
2022-11-30T11:57:07.805Z,1020.02
2022-11-30T11:58:07.795Z,1019.97
2022-11-30T11:59:08.047Z,1019.97
2022-11-30T12:00:15.602Z,1019.96
2022-11-30T12:01:38.130Z,1019.90
2022-11-30T12:02:08.996Z,1019.99
2022-11-30T12:03:08.064Z,1019.98
2022-11-30T12:04:07.755Z,1019.99
2022-11-30T12:05:07.958Z,1019.98